Time;durP1;ratioP1;P1;durP2;ratioP2;P2;SDS_P1;SDS_P2;PMS_P1;PMS_P2;Temp;Humidity;BMP_temperature;BMP_pressure;BME280_temperature;BME280_humidity;BME280_pressure;Samples;Min_cycle;Max_cycle;Signal;HPM_P1;HPM_P2
2022/06/10 00:01:17;;;;;;;6.60;4.50;;;;;;;19.91;51.83;99126.91;1773639;80;21572;-44
2022/06/10 00:03:44;;;;;;;5.55;4.00;;;;;;;19.88;51.76;99121.68;1773659;80;21024;-44
2022/06/10 00:06:13;;;;;;;7.42;3.92;;;;;;;19.85;51.73;99127.24;1773762;80;21293;-44
2022/06/10 00:08:46;;;;;;;5.33;3.60;;;;;;;19.82;51.57;99128.11;1773721;80;21547;-44
2022/06/10 00:11:13;;;;;;;5.33;3.90;;;;;;;19.80;51.07;99126.40;1773608;80;21049;-44
2022/06/10 00:13:44;;;;;;;5.45;3.40;;;;;;;19.80;51.28;99122.27;1772835;80;21024;-44
2022/06/10 00:16:12;;;;;;;5.20;3.92;;;;;;;19.82;51.22;99119.25;1773711;80;21076;-44
2022/06/10 00:18:40;;;;;;;4.87;3.50;;;;;;;19.85;50.87;99118.39;1773450;80;21227;-44
2022/06/10 00:21:08;;;;;;;4.47;4.08;;;;;;;19.87;51.18;99120.12;1773587;80;21061;-44
2022/06/10 00:23:35;;;;;;;8.43;3.80;;;;;;;19.88;50.68;99120.91;1773827;80;21021;-44
2022/06/10 00:26:04;;;;;;;7.95;3.90;;;;;;;19.87;50.65;99121.50;1773596;80;20957;-44
2022/06/10 00:28:32;;;;;;;6.22;3.60;;;;;;;19.87;50.73;99115.22;1773475;80;20978;-44
2022/06/10 00:31:00;;;;;;;6.00;3.87;;;;;;;19.88;51.04;99115.41;1773632;80;21225;-44
2022/06/10 00:33:27;;;;;;;6.12;3.62;;;;;;;19.90;50.92;99111.00;1773631;80;20918;-44
2022/06/10 00:35:55;;;;;;;4.00;3.50;;;;;;;19.91;50.62;99113.16;1773643;80;21019;-44
2022/06/10 00:38:22;;;;;;;5.85;3.87;;;;;;;19.91;50.54;99104.91;1773659;80;21025;-44
2022/06/10 00:40:52;;;;;;;8.75;3.60;;;;;;;19.91;50.77;99111.78;1773553;80;21091;-44
2022/06/10 00:43:24;;;;;;;3.92;3.50;;;;;;;19.91;51.00;99111.78;1773618;80;21999;-44
2022/06/10 00:46:16;;;;;;;4.60;3.60;;;;;;;19.90;50.91;99105.50;1773118;80;20969;-44
2022/06/10 00:48:55;;;;;;;4.58;3.67;;;;;;;19.89;51.33;99103.20;1773448;80;21526;-44
2022/06/10 00:51:35;;;;;;;;;;;;;;;19.87;51.75;99100.09;1776179;80;21617;-44
2022/06/10 00:54:32;;;;;;;5.22;3.52;;;;;;;19.87;52.38;99106.97;1773855;80;20173;-44
2022/06/10 00:57:13;;;;;;;3.90;3.47;;;;;;;19.76;53.22;99118.20;1773877;80;21492;-44
2022/06/10 01:00:00;;;;;;;4.60;3.72;;;;;;;19.77;53.30;99121.13;1773836;80;20985;-44
2022/06/10 01:02:31;;;;;;;4.47;3.45;;;;;;;19.77;52.63;99118.38;1773886;80;21488;-44
2022/06/10 01:04:59;;;;;;;4.70;3.90;;;;;;;19.76;52.21;99118.80;1773763;80;21020;-44
2022/06/10 01:07:33;;;;;;;5.67;3.50;;;;;;;19.74;52.18;99122.59;1773981;80;21005;-44
2022/06/10 01:10:02;;;;;;;6.70;3.55;;;;;;;19.70;51.12;99118.56;1773507;80;21224;-44
2022/06/10 01:12:39;;;;;;;4.95;3.10;;;;;;;19.68;50.23;99122.92;1773706;80;21274;-44
2022/06/10 01:15:47;;;;;;;5.58;3.75;;;;;;;19.68;49.23;99119.57;1772905;80;21037;-44
2022/06/10 01:18:23;;;;;;;6.05;3.60;;;;;;;19.72;49.26;99122.23;1773737;80;21021;-44
2022/06/10 01:21:29;;;;;;;3.52;3.22;;;;;;;19.74;48.64;99123.38;1773523;80;21069;-44
2022/06/10 01:24:38;;;;;;;5.25;3.55;;;;;;;19.79;48.36;99128.97;1773404;80;23161;-44
2022/06/10 01:27:49;;;;;;;6.30;3.97;;;;;;;19.83;49.11;99129.66;1773840;80;21043;-44
2022/06/10 01:30:41;;;;;;;5.33;3.77;;;;;;;19.83;49.11;99129.66;1773541;80;21407;-44
2022/06/10 01:33:38;;;;;;;5.72;3.98;;;;;;;19.85;48.93;99132.74;1779287;80;21538;-44
2022/06/10 01:36:19;;;;;;;5.75;3.65;;;;;;;19.87;48.75;99128.98;1782307;80;21001;-44
2022/06/10 01:38:58;;;;;;;6.47;4.30;;;;;;;19.87;48.41;99127.60;1764400;80;21920;-44
2022/06/10 01:41:58;;;;;;;7.45;4.70;;;;;;;19.87;48.39;99128.38;1782001;80;21174;-44
2022/06/10 01:44:43;;;;;;;9.20;4.65;;;;;;;19.86;48.40;99128.80;1774759;80;20965;-44
2022/06/10 01:47:23;;;;;;;8.68;4.67;;;;;;;19.84;48.83;99129.84;1781328;80;20985;-44
2022/06/10 01:50:14;;;;;;;5.37;4.22;;;;;;;19.84;49.01;99132.59;1781616;80;21028;-44
2022/06/10 01:52:58;;;;;;;6.35;4.62;;;;;;;19.84;49.27;99128.47;1782135;80;21142;-44
2022/06/10 01:55:45;;;;;;;5.45;4.65;;;;;;;19.84;49.43;99130.63;1782474;80;20977;-44
2022/06/10 01:58:26;;;;;;;9.15;5.05;;;;;;;19.85;49.58;99127.24;1781314;80;21489;-44
2022/06/10 02:00:59;;;;;;;7.30;4.60;;;;;;;19.84;49.42;99130.63;1782168;80;21610;-44
2022/06/10 02:03:37;;;;;;;10.05;4.97;;;;;;;19.84;49.48;99134.75;1782243;80;21017;-44
2022/06/10 02:06:10;;;;;;;10.05;4.30;;;;;;;19.85;49.29;99129.39;1782701;80;21205;-44
2022/06/10 02:08:56;;;;;;;8.10;4.90;;;;;;;19.86;49.69;99130.17;1781872;80;21024;-44
2022/06/10 02:11:27;;;;;;;8.15;4.78;;;;;;;19.87;49.44;99130.35;1756462;80;20994;-44
2022/06/10 02:14:17;;;;;;;6.83;5.00;;;;;;;19.87;49.81;99131.73;1782060;80;21024;-44
2022/06/10 02:16:45;;;;;;;6.65;4.50;;;;;;;19.88;49.95;99140.94;1781823;80;21586;-44
2022/06/10 02:19:27;;;;;;;8.65;4.47;;;;;;;19.86;50.27;99133.70;1781885;80;21287;-44
2022/06/10 02:22:08;;;;;;;7.20;4.65;;;;;;;19.86;50.27;99135.08;1782179;80;21068;-44
2022/06/10 02:24:40;;;;;;;6.55;4.58;;;;;;;19.87;50.31;99138.61;1782198;80;21496;-44
2022/06/10 02:27:15;;;;;;;9.08;5.25;;;;;;;19.86;50.48;99132.92;1781936;80;21088;-44
2022/06/10 02:29:54;;;;;;;10.68;4.42;;;;;;;19.86;50.30;99137.83;1780965;80;21531;-44
2022/06/10 02:32:21;;;;;;;5.85;4.20;;;;;;;19.85;50.31;99139.02;1779546;80;21099;-44
2022/06/10 02:34:49;;;;;;;9.30;5.10;;;;;;;19.85;50.28;99136.87;1750355;80;21476;-44
2022/06/10 02:37:24;;;;;;;7.08;4.78;;;;;;;19.86;50.12;99141.17;1773763;80;21524;-44
2022/06/10 02:40:24;;;;;;;8.40;4.78;;;;;;;19.86;50.36;99137.83;1773431;80;20969;-44
2022/06/10 02:43:12;;;;;;;7.65;4.70;;;;;;;19.88;50.19;99137.41;1737609;80;21092;-44
2022/06/10 02:48:01;;;;;;;6.87;4.03;;;;;;;19.95;50.56;99137.23;1803796;78;22666;-44
2022/06/10 02:50:29;;;;;;;6.85;4.35;;;;;;;19.94;50.75;99141.95;1762908;79;21582;-44
2022/06/10 02:52:57;;;;;;;5.50;4.25;;;;;;;20.00;50.76;99139.48;1774508;79;21271;-44
2022/06/10 02:55:26;;;;;;;6.75;4.65;;;;;;;20.04;50.74;99139.42;1779393;79;21530;-44
2022/06/10 03:01:11;;;;;;;6.20;4.17;;;;;;;20.09;51.02;99150.67;1759575;79;21026;-44
2022/06/10 03:04:24;;;;;;;9.05;4.33;;;;;;;20.12;51.01;99152.58;1765603;80;20959;-44
2022/06/10 03:07:12;;;;;;;7.83;4.85;;;;;;;20.13;50.56;99150.01;1790757;80;23124;-44
2022/06/10 03:10:17;;;;;;;7.00;4.50;;;;;;;20.11;50.60;99144.14;1767109;79;20956;-44
2022/06/10 03:13:20;;;;;;;9.45;4.40;;;;;;;20.14;50.72;99157.67;1759417;79;21695;-44
2022/06/10 03:16:08;;;;;;;7.75;4.83;;;;;;;20.15;50.96;99154.47;1759422;79;21557;-44
2022/06/10 03:19:09;;;;;;;11.93;5.30;;;;;;;20.17;50.46;99171.34;1762302;79;21019;-44
2022/06/10 03:22:08;;;;;;;9.65;5.80;;;;;;;20.18;50.52;99161.89;1784624;79;21241;-44
2022/06/10 03:25:12;;;;;;;11.38;5.53;;;;;;;20.16;50.56;99161.53;1785804;79;21032;-44
2022/06/10 03:27:55;;;;;;;13.68;6.70;;;;;;;20.13;50.58;99165.14;1764666;79;21001;-45
2022/06/10 03:30:27;;;;;;;11.40;6.55;;;;;;;20.08;50.93;99162.91;1776840;79;21398;-44
2022/06/10 03:33:16;;;;;;;9.23;6.50;;;;;;;20.05;51.33;99162.96;1759723;79;21589;-44
2022/06/10 03:35:51;;;;;;;16.95;7.22;;;;;;;20.04;51.48;99166.34;1786837;80;23160;-44
2022/06/10 03:38:18;;;;;;;13.62;7.10;;;;;;;20.04;51.85;99169.69;1784388;79;21570;-44
2022/06/10 03:40:55;;;;;;;10.55;6.35;;;;;;;20.05;52.18;99169.84;1774397;80;20920;-44
2022/06/10 03:43:22;;;;;;;10.05;6.70;;;;;;;20.08;52.38;99169.78;1759611;79;21545;-45
2022/06/10 03:46:00;;;;;;;10.93;6.45;;;;;;;20.11;53.03;99175.80;1781135;79;21099;-44
2022/06/10 03:48:28;;;;;;;8.98;5.72;;;;;;;20.14;53.45;99169.42;1762346;79;21088;-43
2022/06/10 03:50:56;;;;;;;12.18;6.05;;;;;;;20.16;53.06;99168.41;1785623;79;20995;-43
2022/06/10 03:53:24;;;;;;;9.40;5.83;;;;;;;20.20;53.43;99170.47;1786927;79;21067;-44
2022/06/10 03:55:53;;;;;;;11.97;6.03;;;;;;;20.26;53.06;99170.73;1769693;79;21007;-45
2022/06/10 03:58:20;;;;;;;8.15;5.90;;;;;;;20.32;53.37;99163.55;1779276;79;21017;-45
2022/06/10 04:00:48;;;;;;;9.98;5.58;;;;;;;20.39;53.53;99164.15;1779969;80;23192;-45
2022/06/10 04:03:16;;;;;;;8.53;5.35;;;;;;;20.46;53.23;99165.97;1781219;79;20996;-44
2022/06/10 04:05:44;;;;;;;9.03;5.75;;;;;;;20.52;53.36;99167.00;1768611;79;21044;-44
2022/06/10 04:08:11;;;;;;;6.87;5.30;;;;;;;20.59;53.10;99166.81;1772192;79;21495;-44
2022/06/10 04:10:38;;;;;;;6.37;5.30;;;;;;;20.66;53.42;99162.52;1777730;79;20927;-44
2022/06/10 04:13:07;;;;;;;11.85;5.50;;;;;;;20.74;53.08;99168.61;1785115;79;21317;-44
2022/06/10 04:15:35;;;;;;;6.08;4.60;;;;;;;20.79;52.76;99172.22;1791681;80;21134;-44
2022/06/10 04:18:04;;;;;;;11.10;5.35;;;;;;;20.86;52.48;99177.56;1769125;80;21119;-44
2022/06/10 04:20:35;;;;;;;7.40;4.90;;;;;;;20.93;52.48;99173.23;1789266;79;21088;-44
2022/06/10 04:23:03;;;;;;;7.25;4.80;;;;;;;21.02;52.53;99177.52;1759028;79;21028;-44
2022/06/10 04:25:32;;;;;;;7.80;4.58;;;;;;;21.08;52.31;99179.92;1759048;79;21624;-44
2022/06/10 04:28:00;;;;;;;8.50;4.50;;;;;;;21.15;52.40;99175.64;1759195;79;21330;-45
2022/06/10 04:30:34;;;;;;;8.85;4.87;;;;;;;21.23;52.33;99176.98;1778432;79;20959;-44
2022/06/10 04:33:02;;;;;;;6.90;4.67;;;;;;;21.30;52.01;99173.24;1777820;79;21581;-45
2022/06/10 04:35:31;;;;;;;5.70;4.53;;;;;;;21.39;52.50;99178.15;1759009;79;21071;-44
2022/06/10 04:37:58;;;;;;;6.85;4.45;;;;;;;21.47;52.58;99178.89;1765043;79;21228;-45
2022/06/10 04:40:28;;;;;;;7.58;4.83;;;;;;;21.56;52.69;99179.63;1790276;79;20941;-44
2022/06/10 04:42:56;;;;;;;6.17;4.70;;;;;;;21.66;52.32;99185.44;1779739;79;21554;-44
2022/06/10 04:45:26;;;;;;;12.35;4.45;;;;;;;21.75;52.82;99187.55;1763573;79;20995;-44
2022/06/10 04:47:54;;;;;;;9.00;4.75;;;;;;;21.82;52.40;99195.03;1761856;79;21052;-44
2022/06/10 04:50:24;;;;;;;8.03;4.87;;;;;;;21.91;52.54;99198.52;1792524;79;21925;-45
2022/06/10 04:52:52;;;;;;;8.40;4.60;;;;;;;22.01;51.91;99194.70;1790761;79;21535;-44
2022/06/10 04:55:19;;;;;;;5.80;4.40;;;;;;;22.10;51.28;99195.59;1784592;79;21004;-44
2022/06/10 04:57:47;;;;;;;7.08;4.55;;;;;;;22.21;51.29;99197.25;1758638;79;20932;-44
2022/06/10 05:00:24;;;;;;;11.73;4.20;;;;;;;22.30;50.73;99193.98;1758971;80;21526;-44
2022/06/10 05:02:51;;;;;;;9.15;4.50;;;;;;;22.41;50.30;99195.04;1779360;79;21154;-44
2022/06/10 05:05:19;;;;;;;7.12;4.37;;;;;;;22.50;50.49;99199.28;1777447;79;21059;-45
2022/06/10 05:07:47;;;;;;;9.05;4.33;;;;;;;22.60;50.76;99201.53;1773015;80;21036;-45
2022/06/10 05:10:14;;;;;;;7.37;4.42;;;;;;;22.71;50.46;99203.35;1760042;79;21028;-45
2022/06/10 05:12:44;;;;;;;7.78;4.75;;;;;;;22.80;50.46;99206.23;1786113;79;21798;-44
2022/06/10 05:15:16;;;;;;;7.50;4.65;;;;;;;22.89;50.28;99201.56;1771567;79;21238;-45
2022/06/10 05:17:43;;;;;;;12.98;4.80;;;;;;;22.99;50.07;99196.13;1778367;80;20972;-45
2022/06/10 05:20:14;;;;;;;6.95;4.47;;;;;;;23.06;50.00;99200.78;1770789;79;21122;-44
2022/06/10 05:22:42;;;;;;;6.62;4.42;;;;;;;23.16;49.75;99200.25;1746250;79;21028;-44
2022/06/10 05:25:10;;;;;;;7.70;4.37;;;;;;;23.25;49.86;99204.47;1786286;79;20981;-45
2022/06/10 05:27:37;;;;;;;9.30;4.28;;;;;;;23.37;49.41;99210.58;1772084;79;21105;-45
2022/06/10 05:30:06;;;;;;;9.98;4.70;;;;;;;23.48;49.41;99203.31;1763747;79;21111;-45
2022/06/10 05:32:33;;;;;;;8.28;4.60;;;;;;;23.58;49.00;99207.67;1777256;80;21023;-45
2022/06/10 05:35:02;;;;;;;8.40;4.70;;;;;;;23.67;49.18;99218.19;1783358;80;20947;-45
2022/06/10 05:37:29;;;;;;;7.25;4.87;;;;;;;23.76;49.32;99218.27;1764632;80;21055;-45
2022/06/10 05:39:56;;;;;;;11.25;4.85;;;;;;;23.85;49.46;99214.78;1784768;79;21132;-45
2022/06/10 05:42:24;;;;;;;7.47;4.67;;;;;;;23.94;49.26;99219.59;1772266;80;21058;-45
2022/06/10 05:44:52;;;;;;;6.35;4.40;;;;;;;24.01;48.71;99220.09;1759335;79;20988;-45
2022/06/10 05:47:24;;;;;;;8.15;4.22;;;;;;;24.09;48.91;99227.53;1791809;80;21103;-44
2022/06/10 05:49:54;;;;;;;6.08;4.37;;;;;;;24.16;49.04;99224.47;1790514;80;21515;-44
2022/06/10 05:52:25;;;;;;;9.15;4.67;;;;;;;24.26;48.89;99223.31;1768903;79;21751;-45
2022/06/10 05:54:56;;;;;;;6.40;4.37;;;;;;;24.35;47.59;99227.51;1771451;79;20942;-44
2022/06/10 05:57:23;;;;;;;9.55;4.58;;;;;;;24.44;46.95;99230.34;1758122;81;20947;-45
2022/06/10 05:59:52;;;;;;;10.43;4.87;;;;;;;24.53;47.03;99226.21;1720334;81;21529;-45
2022/06/10 06:02:22;;;;;;;6.67;4.28;;;;;;;24.62;47.14;99227.62;1743725;81;21020;-45
2022/06/10 06:04:50;;;;;;;6.35;4.30;;;;;;;24.74;47.10;99227.97;1752581;80;21878;-45
2022/06/10 06:07:23;;;;;;;11.57;4.12;;;;;;;24.83;46.64;99225.22;1747636;81;21084;-44
2022/06/10 06:09:50;;;;;;;8.30;4.30;;;;;;;24.92;46.86;99223.87;1726226;81;21058;-45
2022/06/10 06:12:20;;;;;;;6.93;4.43;;;;;;;25.02;46.66;99227.59;1733803;81;20960;-45
2022/06/10 06:14:47;;;;;;;7.97;4.03;;;;;;;25.12;45.77;99233.92;1728302;81;21547;-44
2022/06/10 06:17:14;;;;;;;5.47;4.25;;;;;;;25.18;45.43;99230.67;1753015;81;21257;-44
2022/06/10 06:19:41;;;;;;;6.47;4.50;;;;;;;25.24;45.19;99234.98;1726296;81;21329;-45
2022/06/10 06:22:09;;;;;;;7.30;4.33;;;;;;;25.31;44.74;99239.63;1758596;81;21034;-45
2022/06/10 06:24:37;;;;;;;9.45;4.65;;;;;;;25.39;44.61;99233.15;1753647;80;21555;-45
2022/06/10 06:27:07;;;;;;;8.30;4.45;;;;;;;25.46;44.67;99230.82;1748326;81;21054;-45
2022/06/10 06:29:34;;;;;;;9.30;4.80;;;;;;;25.55;43.99;99232.09;1732634;81;21803;-45
2022/06/10 06:32:02;;;;;;;7.15;4.50;;;;;;;25.64;44.17;99233.47;1720507;80;21589;-45
2022/06/10 06:34:30;;;;;;;7.62;4.37;;;;;;;25.72;43.90;99236.08;1721715;81;21090;-45
2022/06/10 06:36:57;;;;;;;6.78;4.28;;;;;;;25.80;43.90;99244.27;1759856;81;21392;-45
2022/06/10 06:39:26;;;;;;;12.28;5.03;;;;;;;25.92;43.86;99246.08;1722934;81;21007;-44
2022/06/10 06:41:54;;;;;;;8.08;4.42;;;;;;;26.03;43.76;99244.20;1729626;81;21219;-45
2022/06/10 06:44:23;;;;;;;10.32;5.00;;;;;;;26.11;43.92;99243.41;1744076;80;20942;-45
2022/06/10 06:46:50;;;;;;;8.23;4.47;;;;;;;26.17;43.81;99242.93;1742350;81;21620;-45
2022/06/10 06:49:22;;;;;;;7.60;4.47;;;;;;;26.28;44.13;99241.08;1733716;81;21179;-45
2022/06/10 06:51:49;;;;;;;7.17;4.20;;;;;;;26.38;43.78;99245.37;1726625;81;21032;-45
2022/06/10 06:54:17;;;;;;;7.00;3.95;;;;;;;26.46;43.06;99241.00;1761627;81;21562;-45
2022/06/10 06:56:45;;;;;;;8.30;4.70;;;;;;;26.57;43.29;99244.66;1759213;81;20958;-45
2022/06/10 06:59:13;;;;;;;7.28;4.83;;;;;;;26.65;43.03;99246.63;1735114;81;21042;-45
2022/06/10 07:01:40;;;;;;;8.20;4.60;;;;;;;26.72;42.74;99246.27;1749259;81;21511;-45
2022/06/10 07:04:07;;;;;;;6.75;4.50;;;;;;;26.82;42.84;99247.75;1723416;81;21019;-45
2022/06/10 07:06:35;;;;;;;7.97;4.72;;;;;;;26.93;42.93;99250.05;1737269;81;21151;-45
2022/06/10 07:09:04;;;;;;;7.25;4.37;;;;;;;27.02;43.06;99247.20;1760657;81;22404;-45
2022/06/10 07:11:33;;;;;;;5.10;4.30;;;;;;;27.11;42.75;99247.13;1761361;81;21082;-45
2022/06/10 07:14:00;;;;;;;7.25;4.70;;;;;;;27.21;42.63;99240.26;1740410;81;21006;-46
2022/06/10 07:16:27;;;;;;;8.05;3.85;;;;;;;27.31;42.19;99237.41;1733195;81;21050;-45
2022/06/10 07:18:54;;;;;;;8.55;4.30;;;;;;;27.42;41.76;99245.36;1743493;80;21144;-45
2022/06/10 07:21:22;;;;;;;6.65;3.85;;;;;;;27.53;40.68;99249.80;1734030;80;20994;-45
2022/06/10 07:23:50;;;;;;;7.42;4.00;;;;;;;27.62;39.92;99256.67;1738913;81;20963;-45
2022/06/10 07:26:18;;;;;;;8.00;3.75;;;;;;;27.73;40.19;99256.12;1755633;81;21123;-45
2022/06/10 07:28:45;;;;;;;4.97;3.72;;;;;;;27.80;39.76;99251.55;1761520;81;21501;-44
2022/06/10 07:31:12;;;;;;;6.55;3.20;;;;;;;27.90;40.09;99253.62;1740185;81;21252;-45
2022/06/10 07:33:39;;;;;;;5.30;3.52;;;;;;;28.00;39.23;99255.84;1745531;81;21545;-45
2022/06/10 07:36:09;;;;;;;6.20;3.70;;;;;;;28.14;38.34;99253.55;1736380;81;21210;-45
2022/06/10 07:38:36;;;;;;;5.20;3.00;;;;;;;28.28;38.87;99254.93;1720133;81;21128;-45
2022/06/10 07:43:50;;;;;;;5.35;3.30;;;;;;;28.51;37.31;99247.05;1745543;80;21537;-45
2022/06/10 07:46:19;;;;;;;10.05;2.90;;;;;;;28.63;36.53;99250.78;1755233;81;21019;-45
2022/06/10 07:48:46;;;;;;;3.30;2.77;;;;;;;28.73;35.72;99245.26;1742833;81;21539;-45
2022/06/10 07:51:15;;;;;;;6.85;2.80;;;;;;;28.83;35.51;99245.27;1722322;81;21424;-45
2022/06/10 07:53:42;;;;;;;5.90;2.60;;;;;;;28.95;33.75;99253.16;1712171;82;22252;-45
2022/06/10 07:56:11;;;;;;;4.00;2.62;;;;;;;29.00;33.29;99249.67;1721396;83;21083;-45
2022/06/10 07:58:38;;;;;;;5.50;2.72;;;;;;;29.10;33.18;99250.30;1716681;82;21301;-45
2022/06/10 08:01:07;;;;;;;4.03;2.75;;;;;;;29.00;33.61;99215.44;1723406;83;21180;-44
2022/06/10 08:03:35;;;;;;;3.83;2.60;;;;;;;29.31;33.18;99250.48;1722114;83;21161;-44
2022/06/10 08:06:02;;;;;;;5.65;2.60;;;;;;;29.36;32.92;99254.73;1722182;83;21102;-45
2022/06/10 08:08:30;;;;;;;6.00;2.72;;;;;;;29.38;33.62;99258.45;1716775;82;21145;-45
2022/06/10 08:10:57;;;;;;;3.92;2.92;;;;;;;29.46;33.59;99254.58;1708127;82;21485;-45
2022/06/10 08:13:26;;;;;;;5.87;3.02;;;;;;;29.53;33.22;99256.30;1715409;82;21703;-45
2022/06/10 08:15:54;;;;;;;5.60;3.05;;;;;;;29.62;33.56;99250.59;1721228;83;21625;-45
2022/06/10 08:18:22;;;;;;;6.92;3.70;;;;;;;29.76;33.84;99255.30;1714404;82;21058;-45
2022/06/10 08:23:35;;;;;;;6.45;4.28;;;;;;;30.01;32.47;99261.41;1710708;82;21600;-45
2022/06/10 08:26:06;;;;;;;6.22;3.80;;;;;;;30.06;32.88;99261.47;1706738;82;21054;-45
2022/06/10 08:28:35;;;;;;;5.58;3.80;;;;;;;30.12;32.47;99262.89;1711020;82;21224;-45
2022/06/10 08:31:03;;;;;;;7.10;3.60;;;;;;;30.15;32.30;99264.72;1708470;82;21101;-45
2022/06/10 08:33:30;;;;;;;7.55;3.67;;;;;;;30.20;31.53;99263.38;1714390;82;21235;-45
2022/06/10 08:35:57;;;;;;;5.58;3.80;;;;;;;30.26;32.14;99260.59;1712520;82;21117;-45
2022/06/10 08:38:25;;;;;;;5.85;4.10;;;;;;;30.35;32.21;99262.47;1719969;83;21006;-45
2022/06/10 08:41:19;;;;;;;7.35;4.25;;;;;;;30.44;32.09;99256.05;1711583;82;21117;-45
2022/06/10 08:44:00;;;;;;;10.05;3.95;;;;;;;30.50;31.48;99263.13;1716469;82;21049;-45
2022/06/10 08:47:03;;;;;;;7.47;3.87;;;;;;;30.52;31.24;99265.54;1715945;82;21307;-45
2022/06/10 08:49:50;;;;;;;10.90;3.65;;;;;;;30.60;31.74;99258.21;1717923;83;21097;-45
2022/06/10 08:52:38;;;;;;;5.33;3.55;;;;;;;30.78;31.50;99258.47;1705939;82;21014;-45
2022/06/10 08:55:43;;;;;;;5.55;3.80;;;;;;;30.96;30.05;99261.48;1706421;82;21042;-45
2022/06/10 08:58:47;;;;;;;10.82;4.90;;;;;;;31.06;30.61;99260.05;1713526;82;21563;-45
2022/06/10 09:01:19;;;;;;;8.28;4.30;;;;;;;31.19;30.57;99257.55;1710391;82;21884;-45
2022/06/10 09:04:06;;;;;;;6.35;3.80;;;;;;;31.30;30.72;99262.44;1708285;82;21519;-45
2022/06/10 09:06:51;;;;;;;8.40;2.98;;;;;;;31.32;30.12;99264.11;1704703;82;21202;-45
2022/06/10 09:09:20;;;;;;;4.75;3.08;;;;;;;31.33;29.52;99267.79;1706509;82;20978;-45
2022/06/10 09:12:21;;;;;;;4.10;2.87;;;;;;;31.34;28.55;99265.12;1718677;82;21153;-45
2022/06/10 09:14:51;;;;;;;4.03;2.87;;;;;;;31.37;29.22;99268.31;1708261;82;21132;-45
2022/06/10 09:17:29;;;;;;;5.05;3.00;;;;;;;31.48;29.04;99266.19;1721894;83;21058;-45
2022/06/10 09:20:01;;;;;;;6.42;3.47;;;;;;;31.61;28.24;99265.77;1715491;82;21102;-45
2022/06/10 09:22:49;;;;;;;6.15;3.65;;;;;;;31.63;27.81;99272.38;1714992;82;21037;-45
2022/06/10 09:25:35;;;;;;;6.08;3.12;;;;;;;31.64;27.92;99273.15;1706283;82;21045;-45
2022/06/10 09:28:00;;;;;;;6.85;3.87;;;;;;;31.66;27.75;99265.02;1705329;82;21272;-45
2022/06/10 09:30:38;;;;;;;4.25;3.20;;;;;;;31.56;27.45;99263.68;1715972;82;21128;-45
2022/06/10 09:33:43;;;;;;;6.17;3.42;;;;;;;31.40;27.91;99264.52;1715687;82;21087;-45
2022/06/10 09:36:40;;;;;;;8.90;4.15;;;;;;;31.28;27.79;99267.13;1719770;83;21043;-46
2022/06/10 09:42:42;;;;;;;10.13;4.20;;;;;;;31.28;27.92;99270.56;1711838;82;21314;-45
2022/06/10 09:45:47;;;;;;;6.50;4.00;;;;;;;31.39;28.51;99271.39;1706127;82;21026;-45
2022/06/10 09:48:38;;;;;;;5.62;3.60;;;;;;;31.27;28.14;99232.64;1712286;82;21612;-45
2022/06/10 09:51:19;;;;;;;6.78;3.60;;;;;;;31.63;27.61;99268.80;1707940;82;21034;-45
2022/06/10 09:54:14;;;;;;;5.65;3.25;;;;;;;31.77;27.31;99263.61;1711854;82;21086;-45
2022/06/10 09:57:25;;;;;;;5.92;3.77;;;;;;;31.87;27.01;99267.71;1718466;82;23221;-45
2022/06/10 10:00:19;;;;;;;9.88;4.90;;;;;;;31.89;27.88;99269.38;1704978;83;21683;-46
2022/06/10 10:03:15;;;;;;;6.20;4.67;;;;;;;31.90;27.30;99273.73;1722131;83;21061;-45
2022/06/10 10:06:18;;;;;;;7.37;4.72;;;;;;;31.83;26.92;99277.02;1709090;82;21645;-45
2022/06/10 10:09:11;;;;;;;7.83;4.50;;;;;;;31.78;27.27;99276.36;1683968;83;21431;-45
2022/06/10 10:12:02;;;;;;;10.55;5.20;;;;;;;31.67;27.95;99245.50;1697747;82;21098;-45
2022/06/10 10:14:47;;;;;;;8.70;5.33;;;;;;;31.98;27.06;99276.15;1719937;83;20986;-45
2022/06/10 10:17:55;;;;;;;11.95;6.25;;;;;;;32.12;27.25;99279.38;1715062;82;21057;-43
2022/06/10 10:20:49;;;;;;;11.80;6.08;;;;;;;32.23;26.43;99271.61;1684919;84;21028;-43
2022/06/10 10:23:24;;;;;;;9.18;6.25;;;;;;;32.10;26.85;99273.50;1672307;84;21140;-43
2022/06/10 10:25:52;;;;;;;11.05;6.25;;;;;;;31.91;27.07;99284.41;1679022;84;21464;-43
2022/06/10 10:28:23;;;;;;;9.88;6.00;;;;;;;31.74;26.46;99287.83;1686758;85;21071;-43
2022/06/10 10:31:22;;;;;;;10.70;6.62;;;;;;;31.53;26.45;99276.65;1665768;85;21499;-43
2022/06/10 10:33:50;;;;;;;8.98;6.47;;;;;;;31.33;26.74;99277.59;1666420;85;21094;-43
2022/06/10 10:36:31;;;;;;;10.55;6.62;;;;;;;31.12;27.68;99283.25;1667218;85;21024;-43
2022/06/10 10:39:15;;;;;;;15.15;7.22;;;;;;;31.01;27.79;99274.15;1657018;85;21640;-43
2022/06/10 10:41:48;;;;;;;10.08;7.72;;;;;;;31.05;27.34;99271.11;1685769;84;21021;-43
2022/06/10 10:44:35;;;;;;;15.30;7.80;;;;;;;31.32;28.16;99276.05;1673977;84;22205;-43
2022/06/10 10:47:14;;;;;;;11.40;7.65;;;;;;;31.66;27.39;99269.22;1673358;84;21593;-43
2022/06/10 10:50:10;;;;;;;10.68;7.47;;;;;;;32.00;27.02;99272.18;1679689;84;21050;-43
2022/06/10 10:52:41;;;;;;;12.18;8.30;;;;;;;32.36;27.07;99273.26;1662926;85;21165;-43
2022/06/10 10:55:20;;;;;;;15.08;8.40;;;;;;;32.78;26.46;99263.78;1665635;85;20999;-44
2022/06/10 10:57:58;;;;;;;12.47;7.55;;;;;;;33.10;25.67;99266.39;1666400;85;21026;-43
2022/06/10 11:00:42;;;;;;;10.70;8.00;;;;;;;33.43;25.61;99271.77;1684217;84;20999;-43
2022/06/10 11:03:29;;;;;;;11.93;7.58;;;;;;;33.77;24.21;99260.49;1681828;84;21657;-43
2022/06/10 11:06:03;;;;;;;12.13;7.17;;;;;;;34.13;24.05;99265.46;1674221;85;21096;-43
2022/06/10 11:08:36;;;;;;;11.50;7.47;;;;;;;34.47;23.53;99268.78;1674183;85;21090;-43
2022/06/10 11:11:08;;;;;;;10.40;7.62;;;;;;;34.66;22.37;99258.39;1675314;85;21855;-43
2022/06/10 11:13:59;;;;;;;8.53;7.28;;;;;;;34.68;22.80;99264.27;1674631;85;20994;-43
2022/06/10 11:16:38;;;;;;;9.70;7.37;;;;;;;34.60;22.65;99267.53;1675111;84;21119;-43
2022/06/10 11:19:38;;;;;;;12.82;7.53;;;;;;;34.35;22.37;99259.70;1676254;85;22288;-43
2022/06/10 11:22:19;;;;;;;16.87;7.53;;;;;;;34.00;22.55;99266.72;1676583;85;21695;-43
2022/06/10 11:24:54;;;;;;;11.05;7.67;;;;;;;33.83;22.92;99259.82;1672767;85;21005;-43
2022/06/10 11:27:38;;;;;;;12.28;7.72;;;;;;;33.88;23.04;99260.42;1685668;84;21244;-43
2022/06/10 11:30:17;;;;;;;13.43;7.47;;;;;;;34.15;22.99;99254.45;1686692;84;21045;-43
2022/06/10 11:33:06;;;;;;;9.85;6.95;;;;;;;34.38;22.78;99252.23;1683103;84;23138;-43
2022/06/10 11:35:41;;;;;;;10.55;7.28;;;;;;;34.56;22.65;99248.77;1664050;85;20966;-44
2022/06/10 11:38:22;;;;;;;21.87;8.65;;;;;;;34.46;22.44;99250.39;1685562;84;20978;-43
2022/06/10 11:40:53;;;;;;;9.43;6.83;;;;;;;34.20;23.30;99249.45;1685577;85;21592;-43
2022/06/10 11:43:31;;;;;;;12.05;7.28;;;;;;;33.92;22.67;99242.62;1670037;85;21043;-43
2022/06/10 11:46:16;;;;;;;13.90;6.90;;;;;;;33.73;23.14;99248.77;1666191;85;21169;-43
2022/06/10 11:49:10;;;;;;;10.20;6.60;;;;;;;33.70;22.98;99252.59;1683280;84;21028;-43
2022/06/10 11:52:01;;;;;;;8.73;6.60;;;;;;;33.88;23.63;99250.58;1686261;84;21128;-43
2022/06/10 11:54:49;;;;;;;9.15;6.80;;;;;;;34.34;23.11;99243.33;1688530;84;21067;-43
2022/06/10 12:00:31;;;;;;;11.12;6.97;;;;;;;35.30;21.73;99241.80;1684081;84;21995;-43
2022/06/10 12:03:29;;;;;;;9.20;6.85;;;;;;;35.37;21.33;99241.86;1695466;84;21522;-44
2022/06/10 12:06:19;;;;;;;8.50;7.05;;;;;;;35.20;21.61;99243.47;1686472;84;20999;-44
2022/06/10 12:09:11;;;;;;;9.13;7.00;;;;;;;35.20;22.22;99247.70;1667168;84;21590;-44
2022/06/10 12:11:52;;;;;;;9.25;7.58;;;;;;;35.42;21.32;99245.25;1683122;84;21103;-43
2022/06/10 12:14:29;;;;;;;11.05;7.37;;;;;;;35.65;21.04;99248.66;1687163;84;21254;-44
2022/06/10 12:17:05;;;;;;;13.22;7.17;;;;;;;35.82;20.73;99243.43;1694198;84;21023;-43
2022/06/10 12:19:48;;;;;;;11.68;7.08;;;;;;;36.03;20.70;99240.13;1689310;84;21043;-43
2022/06/10 12:22:15;;;;;;;11.57;6.28;;;;;;;36.32;20.64;99234.16;1692001;84;21685;-43
2022/06/10 12:24:46;;;;;;;8.87;6.17;;;;;;;36.76;20.48;99242.50;1696032;84;21072;-43
2022/06/10 12:27:22;;;;;;;9.40;6.90;;;;;;;37.19;19.88;99233.05;1687154;84;21224;-43
2022/06/10 12:30:02;;;;;;;8.75;6.22;;;;;;;37.63;19.34;99227.73;1687281;84;21044;-43
2022/06/10 12:32:45;;;;;;;9.25;6.40;;;;;;;37.82;18.80;99229.08;1677846;84;20968;-44